createdAt,value
2023-02-23T00:00:01.654Z,35.48
2023-02-23T00:01:34.004Z,35.24
2023-02-23T00:03:05.385Z,35.79
2023-02-23T00:04:37.842Z,35.35
2023-02-23T00:06:10.902Z,35.99
2023-02-23T00:07:42.165Z,35.26
2023-02-23T00:09:13.865Z,35.42
2023-02-23T00:10:45.251Z,36.20
2023-02-23T00:12:16.756Z,36.65
2023-02-23T00:13:48.495Z,37.80
2023-02-23T00:15:19.970Z,36.97
2023-02-23T00:16:51.373Z,37.74
2023-02-23T00:18:23.238Z,38.38
2023-02-23T00:19:54.793Z,38.48
2023-02-23T00:21:31.577Z,37.83
2023-02-23T00:23:02.862Z,38.58
2023-02-23T00:24:34.786Z,37.98
2023-02-23T00:26:06.252Z,38.62
2023-02-23T00:27:37.856Z,39.00
2023-02-23T00:29:24.395Z,38.47
2023-02-23T00:30:58.464Z,39.60
2023-02-23T00:32:31.209Z,39.32
2023-02-23T00:34:08.361Z,39.01
2023-02-23T00:35:40.083Z,38.52
2023-02-23T00:37:11.803Z,39.13
2023-02-23T00:38:56.788Z,38.78
2023-02-23T00:40:28.315Z,39.28
2023-02-23T00:41:59.736Z,39.43
2023-02-23T00:43:31.289Z,40.47
2023-02-23T00:45:02.682Z,41.54
2023-02-23T00:46:34.341Z,39.85
2023-02-23T00:48:06.784Z,40.29
2023-02-23T00:49:43.231Z,41.02
2023-02-23T00:51:15.738Z,41.11
2023-02-23T00:52:47.489Z,42.02
2023-02-23T00:54:19.022Z,42.21
2023-02-23T00:56:01.329Z,42.44
2023-02-23T00:57:32.873Z,44.36
2023-02-23T00:59:14.457Z,44.37
2023-02-23T01:00:46.041Z,44.66
2023-02-23T01:02:18.829Z,45.38
2023-02-23T01:03:55.346Z,44.46
2023-02-23T01:05:26.775Z,45.61
2023-02-23T01:06:58.316Z,44.84
2023-02-23T01:08:30.094Z,44.03
2023-02-23T01:10:01.599Z,46.47
2023-02-23T01:11:43.440Z,46.10
2023-02-23T01:13:15.173Z,46.63
2023-02-23T01:14:46.835Z,47.27
2023-02-23T01:16:26.838Z,46.52
2023-02-23T01:18:13.282Z,46.37
2023-02-23T01:19:49.772Z,47.04
2023-02-23T01:21:21.831Z,46.53
2023-02-23T01:22:53.463Z,46.18
2023-02-23T01:24:24.786Z,47.64
2023-02-23T01:25:56.712Z,46.30
2023-02-23T01:27:28.063Z,47.62
2023-02-23T01:28:59.494Z,47.45
2023-02-23T01:30:43.278Z,48.30
2023-02-23T01:32:15.142Z,48.56
2023-02-23T01:33:47.003Z,46.91
2023-02-23T01:35:41.176Z,47.33
2023-02-23T01:37:15.695Z,47.84
2023-02-23T01:38:47.721Z,48.07
2023-02-23T01:40:26.069Z,47.76
2023-02-23T01:41:57.772Z,48.14
2023-02-23T01:43:29.521Z,48.82
2023-02-23T01:45:00.937Z,48.70
2023-02-23T01:46:32.286Z,48.29
2023-02-23T01:48:03.624Z,48.89
2023-02-23T01:49:34.994Z,48.27
2023-02-23T01:51:11.704Z,48.12
2023-02-23T01:52:53.950Z,48.66
2023-02-23T01:54:25.429Z,49.59
2023-02-23T01:55:56.987Z,48.98
2023-02-23T01:57:28.441Z,49.96
2023-02-23T01:58:59.866Z,49.21
2023-02-23T02:00:31.521Z,49.46
2023-02-23T02:02:02.795Z,49.95
2023-02-23T02:03:34.219Z,50.03
2023-02-23T02:05:05.752Z,50.22
2023-02-23T02:06:37.152Z,50.38
2023-02-23T02:08:08.539Z,49.79
2023-02-23T02:09:39.991Z,49.56
2023-02-23T02:11:11.449Z,49.80
2023-02-23T02:12:42.927Z,50.29
2023-02-23T02:14:14.309Z,51.20
2023-02-23T02:15:45.748Z,50.46
2023-02-23T02:17:17.166Z,50.12
2023-02-23T02:18:48.688Z,49.96
2023-02-23T02:20:20.302Z,50.95
2023-02-23T02:21:52.019Z,50.83
2023-02-23T02:23:23.598Z,50.91
2023-02-23T02:24:55.264Z,51.07
2023-02-23T02:26:26.754Z,51.85
2023-02-23T02:27:58.063Z,52.04
2023-02-23T02:29:29.605Z,52.47
2023-02-23T02:31:01.211Z,52.30
2023-02-23T02:32:32.605Z,52.74
2023-02-23T02:34:03.967Z,52.69
2023-02-23T02:35:35.433Z,52.68
2023-02-23T02:37:07.141Z,53.52
2023-02-23T02:38:38.479Z,53.88
2023-02-23T02:40:10.066Z,52.69
2023-02-23T02:41:41.531Z,53.21
2023-02-23T02:43:13.005Z,53.64
2023-02-23T02:44:44.450Z,53.78
2023-02-23T02:46:15.822Z,53.33
2023-02-23T02:47:47.407Z,54.59
2023-02-23T02:49:18.720Z,54.25
2023-02-23T02:50:50.239Z,54.44
2023-02-23T02:52:21.661Z,53.44
2023-02-23T02:53:52.957Z,53.81
2023-02-23T02:55:24.538Z,53.96
2023-02-23T02:56:56.282Z,53.53
2023-02-23T02:58:27.731Z,53.74
2023-02-23T02:59:59.022Z,53.33
2023-02-23T03:01:30.827Z,53.12
2023-02-23T03:03:02.280Z,53.43
2023-02-23T03:04:33.752Z,54.55
2023-02-23T03:06:05.094Z,54.91
2023-02-23T03:07:36.838Z,55.78
2023-02-23T03:09:08.285Z,54.50
2023-02-23T03:10:39.793Z,55.03
2023-02-23T03:12:11.575Z,55.22
2023-02-23T03:13:42.933Z,55.38
2023-02-23T03:15:14.305Z,55.34
2023-02-23T03:16:45.637Z,55.85
2023-02-23T03:18:17.042Z,54.71
2023-02-23T03:19:48.500Z,56.42
2023-02-23T03:21:20.084Z,55.77
2023-02-23T03:22:51.688Z,56.83
2023-02-23T03:24:23.307Z,55.28
2023-02-23T03:25:54.674Z,54.94
2023-02-23T03:27:25.952Z,56.37
2023-02-23T03:28:57.301Z,57.20
2023-02-23T03:30:28.759Z,56.28
2023-02-23T03:32:00.541Z,55.75
2023-02-23T03:33:32.082Z,55.67
2023-02-23T03:35:03.663Z,55.29
2023-02-23T03:36:34.916Z,56.09
2023-02-23T03:38:06.357Z,55.89
2023-02-23T03:39:37.674Z,55.95
2023-02-23T03:41:08.966Z,56.08
2023-02-23T03:42:40.354Z,55.61
2023-02-23T03:44:11.692Z,54.58
2023-02-23T03:45:43.018Z,55.73
2023-02-23T03:47:14.302Z,55.19
2023-02-23T03:48:45.725Z,55.09
2023-02-23T03:50:17.032Z,55.36
2023-02-23T03:51:48.360Z,55.76
2023-02-23T03:53:19.869Z,55.79
2023-02-23T03:54:51.225Z,55.84
2023-02-23T03:56:22.722Z,55.84
2023-02-23T03:57:54.298Z,54.68
2023-02-23T03:59:25.759Z,54.38
2023-02-23T04:00:57.718Z,55.40
2023-02-23T04:02:29.004Z,53.67
2023-02-23T04:04:00.324Z,54.40
2023-02-23T04:05:31.656Z,55.33
2023-02-23T04:07:04.619Z,54.68
2023-02-23T04:08:36.526Z,54.47
2023-02-23T04:10:07.928Z,53.95
2023-02-23T04:11:39.360Z,54.81
2023-02-23T04:13:10.646Z,55.11
2023-02-23T04:14:42.092Z,54.30
2023-02-23T04:16:13.431Z,55.48
2023-02-23T04:17:44.905Z,55.14
2023-02-23T04:19:16.284Z,54.60
2023-02-23T04:20:47.911Z,55.05
2023-02-23T04:22:19.290Z,55.09
2023-02-23T04:23:50.825Z,55.56
2023-02-23T04:25:22.223Z,56.26
2023-02-23T04:26:53.574Z,56.14
2023-02-23T04:28:24.878Z,54.43
2023-02-23T04:29:56.414Z,54.92
2023-02-23T04:31:27.985Z,55.92
2023-02-23T04:32:59.363Z,56.60
2023-02-23T04:34:30.686Z,56.37
2023-02-23T04:36:02.059Z,56.43
2023-02-23T04:37:33.486Z,56.25
2023-02-23T04:39:04.951Z,55.42
2023-02-23T04:40:36.361Z,54.23
2023-02-23T04:42:08.038Z,57.13
2023-02-23T04:43:44.313Z,57.39
2023-02-23T04:45:15.623Z,57.05
2023-02-23T04:46:47.251Z,56.71
2023-02-23T04:48:18.532Z,57.47
2023-02-23T04:49:49.839Z,55.76
2023-02-23T04:51:21.371Z,56.83
2023-02-23T04:52:52.790Z,56.49
2023-02-23T04:54:24.143Z,57.97
2023-02-23T04:55:55.427Z,57.11
2023-02-23T04:57:26.817Z,56.98
2023-02-23T04:58:58.214Z,56.73
2023-02-23T05:00:29.608Z,57.08
2023-02-23T05:02:23.734Z,56.56
2023-02-23T05:03:55.165Z,56.42
2023-02-23T05:05:26.590Z,56.91
2023-02-23T05:06:57.863Z,56.78
2023-02-23T05:08:29.261Z,57.08
2023-02-23T05:10:00.585Z,57.70
2023-02-23T05:11:31.962Z,57.49
2023-02-23T05:13:03.473Z,56.51
2023-02-23T05:14:34.820Z,56.90
2023-02-23T05:16:06.108Z,57.16
2023-02-23T05:17:37.463Z,57.40
2023-02-23T05:19:08.664Z,57.75
2023-02-23T05:20:39.904Z,57.62
2023-02-23T05:22:11.301Z,57.24
2023-02-23T05:23:42.616Z,58.79
2023-02-23T05:25:13.907Z,57.47
2023-02-23T05:26:45.223Z,57.39
2023-02-23T05:28:16.554Z,57.23
2023-02-23T05:29:47.839Z,56.29
2023-02-23T05:31:19.767Z,56.94
2023-02-23T05:32:51.584Z,58.16
2023-02-23T05:34:22.883Z,57.61
2023-02-23T05:35:54.274Z,56.43
2023-02-23T05:37:26.298Z,57.14
2023-02-23T05:38:57.610Z,57.14
2023-02-23T05:40:28.916Z,56.23
2023-02-23T05:44:11.372Z,56.84
2023-02-23T05:45:47.928Z,56.48
2023-02-23T05:47:19.524Z,55.87
2023-02-23T05:48:51.424Z,56.29
2023-02-23T05:50:42.038Z,56.84
2023-02-23T05:52:13.756Z,56.65
2023-02-23T05:54:06.082Z,57.50
2023-02-23T05:55:37.577Z,57.63
2023-02-23T05:57:08.847Z,57.32
2023-02-23T05:58:40.267Z,58.38
2023-02-23T06:00:11.776Z,58.60
2023-02-23T06:01:43.119Z,57.20
2023-02-23T06:03:14.825Z,56.39
2023-02-23T06:04:46.101Z,56.40
2023-02-23T06:06:17.434Z,56.92
2023-02-23T06:07:48.914Z,56.32
2023-02-23T06:09:20.332Z,54.81
2023-02-23T06:10:51.644Z,55.78
2023-02-23T06:12:23.186Z,55.98
2023-02-23T06:13:59.547Z,56.15
2023-02-23T06:15:30.851Z,56.62
2023-02-23T06:17:02.184Z,56.42
2023-02-23T06:18:33.681Z,56.90
2023-02-23T06:20:06.330Z,55.96
2023-02-23T06:21:37.757Z,55.90
2023-02-23T06:23:09.147Z,56.33
2023-02-23T06:24:40.581Z,54.53
2023-02-23T06:26:13.119Z,55.37
2023-02-23T06:27:44.539Z,54.63
2023-02-23T06:29:16.222Z,54.41
2023-02-23T06:30:47.774Z,54.81
2023-02-23T06:32:19.225Z,55.37
2023-02-23T06:33:50.609Z,55.85
2023-02-23T06:35:22.026Z,55.08
2023-02-23T06:36:53.359Z,53.87
2023-02-23T06:38:24.686Z,54.74
2023-02-23T06:39:56.024Z,54.93
2023-02-23T06:41:27.700Z,55.48
2023-02-23T06:42:58.966Z,55.70
2023-02-23T06:44:30.369Z,54.50
2023-02-23T06:46:01.887Z,54.20
2023-02-23T06:47:33.401Z,54.96
2023-02-23T06:49:04.813Z,55.30
2023-02-23T06:50:36.728Z,55.82
2023-02-23T06:52:08.269Z,55.60
2023-02-23T06:53:39.900Z,54.97
2023-02-23T06:55:11.454Z,54.92
2023-02-23T06:56:43.581Z,56.26
2023-02-23T06:58:14.882Z,58.72
2023-02-23T06:59:46.463Z,58.77
2023-02-23T07:01:18.234Z,57.32
2023-02-23T07:02:50.062Z,58.91
2023-02-23T07:04:21.382Z,58.37
2023-02-23T07:05:52.950Z,57.04
2023-02-23T07:07:24.518Z,58.40
2023-02-23T07:08:56.057Z,58.25
2023-02-23T07:10:27.387Z,57.17
2023-02-23T07:11:58.690Z,58.88
2023-02-23T07:13:30.088Z,57.49
2023-02-23T07:15:01.879Z,57.44
2023-02-23T07:16:33.326Z,59.38
2023-02-23T07:18:04.540Z,59.68
2023-02-23T07:19:35.768Z,59.50
2023-02-23T07:21:07.352Z,60.05
2023-02-23T07:22:39.982Z,60.03
2023-02-23T07:24:11.434Z,60.30
2023-02-23T07:25:42.678Z,59.48
2023-02-23T07:27:13.908Z,60.25
2023-02-23T07:29:21.591Z,58.90
2023-02-23T07:30:53.226Z,58.44
2023-02-23T07:32:24.994Z,59.29
2023-02-23T07:33:56.698Z,59.52
2023-02-23T07:35:28.184Z,59.97
2023-02-23T07:36:59.771Z,58.98
2023-02-23T07:38:31.315Z,59.95
2023-02-23T07:40:02.980Z,59.57
2023-02-23T07:41:34.655Z,59.36
2023-02-23T07:43:42.951Z,59.60
2023-02-23T07:45:14.765Z,59.62
2023-02-23T07:46:46.631Z,58.80
2023-02-23T07:48:18.576Z,59.37
2023-02-23T07:49:50.536Z,60.22
2023-02-23T07:51:22.300Z,60.04
2023-02-23T07:52:53.791Z,59.73
2023-02-23T07:54:25.145Z,60.70
2023-02-23T07:55:56.553Z,61.09
2023-02-23T07:57:27.898Z,60.87
2023-02-23T07:58:59.178Z,59.66
2023-02-23T08:00:52.752Z,60.64
2023-02-23T08:02:24.333Z,60.10
2023-02-23T08:03:55.947Z,62.49
2023-02-23T08:05:27.681Z,60.49
2023-02-23T08:06:59.723Z,62.54
2023-02-23T08:08:32.083Z,62.60
2023-02-23T08:10:03.502Z,62.75
2023-02-23T08:11:34.951Z,61.26
2023-02-23T08:13:45.804Z,64.40
2023-02-23T08:15:17.755Z,64.89
2023-02-23T08:16:51.619Z,65.11
2023-02-23T08:18:23.817Z,64.54
2023-02-23T08:19:56.635Z,65.37
2023-02-23T08:21:28.905Z,66.65
2023-02-23T08:23:00.812Z,67.71
2023-02-23T08:24:32.490Z,65.28
2023-02-23T08:26:03.961Z,64.55
2023-02-23T08:27:35.412Z,65.58
2023-02-23T08:29:06.758Z,64.75
2023-02-23T08:31:00.634Z,64.04
2023-02-23T08:32:32.238Z,65.03
2023-02-23T08:34:03.927Z,66.62
2023-02-23T08:35:35.656Z,65.32
2023-02-23T08:37:07.049Z,66.12
2023-02-23T08:38:39.177Z,65.35
2023-02-23T08:40:10.926Z,64.11
2023-02-23T08:41:42.624Z,63.15
2023-02-23T08:43:14.512Z,63.77
2023-02-23T08:45:09.747Z,60.48
2023-02-23T08:46:42.256Z,59.15
2023-02-23T08:48:19.148Z,60.99
2023-02-23T08:49:50.517Z,58.39
2023-02-23T08:51:22.296Z,58.97
2023-02-23T08:52:54.078Z,57.67
2023-02-23T08:54:25.738Z,56.58
2023-02-23T08:55:57.324Z,56.90
2023-02-23T08:58:00.627Z,56.24
2023-02-23T08:59:32.124Z,54.84
2023-02-23T09:01:03.750Z,53.57
2023-02-23T09:02:35.214Z,54.18
2023-02-23T09:04:06.706Z,55.58
2023-02-23T09:05:43.666Z,54.92
2023-02-23T09:07:21.418Z,54.04
2023-02-23T09:08:53.362Z,52.84
2023-02-23T09:10:30.326Z,52.24
2023-02-23T09:12:02.189Z,50.16
2023-02-23T09:13:33.858Z,45.77
2023-02-23T09:15:07.765Z,45.46
2023-02-23T09:17:04.772Z,49.00
2023-02-23T09:18:36.651Z,48.04
2023-02-23T09:20:08.831Z,46.27
2023-02-23T09:21:40.667Z,46.73
2023-02-23T09:23:12.674Z,43.27
2023-02-23T09:24:44.588Z,41.98
2023-02-23T09:26:16.185Z,42.93
2023-02-23T09:27:47.802Z,42.18
2023-02-23T09:29:19.397Z,42.47
2023-02-23T09:31:01.242Z,43.92
2023-02-23T09:32:32.755Z,43.44
2023-02-23T09:34:12.188Z,44.10
2023-02-23T09:35:43.635Z,43.79
2023-02-23T09:37:14.964Z,44.84
2023-02-23T09:38:46.285Z,44.11
2023-02-23T09:41:10.125Z,43.36
2023-02-23T09:43:01.461Z,43.99
2023-02-23T09:44:32.977Z,42.82
2023-02-23T09:46:04.325Z,42.61
2023-02-23T09:47:35.776Z,42.82
2023-02-23T09:49:07.139Z,41.90
2023-02-23T09:51:20.781Z,40.16
2023-02-23T09:52:53.328Z,40.32
2023-02-23T09:54:57.420Z,41.51
2023-02-23T09:56:48.795Z,39.97
2023-02-23T09:58:50.238Z,39.95
2023-02-23T10:00:57.822Z,40.21
2023-02-23T10:02:31.011Z,38.87
2023-02-23T10:04:50.394Z,39.55
2023-02-23T10:06:30.100Z,40.22
2023-02-23T10:08:16.694Z,38.39
2023-02-23T10:09:48.240Z,39.42
2023-02-23T10:11:52.651Z,36.90
2023-02-23T10:13:29.072Z,35.32
2023-02-23T10:15:00.726Z,36.86
2023-02-23T10:16:52.059Z,36.67
2023-02-23T10:18:27.010Z,37.61
2023-02-23T10:20:03.437Z,38.72
2023-02-23T10:21:34.934Z,39.13
2023-02-23T10:25:27.999Z,38.78
2023-02-23T10:26:59.992Z,39.69
2023-02-23T10:28:31.401Z,39.36
2023-02-23T10:30:12.772Z,39.68
2023-02-23T10:32:13.739Z,40.04
2023-02-23T10:33:50.338Z,38.87
2023-02-23T10:35:21.776Z,38.74
2023-02-23T10:37:06.711Z,39.36
2023-02-23T10:38:53.125Z,41.12
2023-02-23T10:40:24.455Z,40.93
2023-02-23T10:41:55.935Z,39.00
2023-02-23T10:43:47.836Z,38.33
2023-02-23T10:45:19.336Z,39.94
2023-02-23T10:47:26.426Z,37.24
2023-02-23T10:49:22.884Z,37.12
2023-02-23T10:50:54.345Z,37.45
2023-02-23T10:52:50.812Z,36.87
2023-02-23T10:54:22.186Z,37.93
2023-02-23T10:55:53.501Z,39.19
2023-02-23T10:57:26.534Z,38.80
2023-02-23T10:59:25.643Z,38.39
2023-02-23T11:00:57.117Z,37.99
2023-02-23T11:02:55.163Z,39.58
2023-02-23T11:04:57.910Z,38.84
2023-02-23T11:06:55.572Z,39.30
2023-02-23T11:08:27.273Z,40.72
2023-02-23T11:09:59.049Z,40.29
2023-02-23T11:12:08.185Z,38.79
2023-02-23T11:13:44.844Z,38.76
2023-02-23T11:15:16.324Z,39.24
2023-02-23T11:17:08.306Z,38.43
2023-02-23T11:19:12.602Z,39.22
2023-02-23T11:21:02.088Z,38.52
2023-02-23T11:22:43.805Z,36.70
2023-02-23T11:24:15.433Z,37.40
2023-02-23T11:25:49.504Z,36.09
2023-02-23T11:27:21.839Z,36.61
2023-02-23T11:29:24.419Z,35.46
2023-02-23T11:31:29.443Z,35.87
2023-02-23T11:33:08.297Z,34.29
2023-02-23T11:34:40.349Z,33.67
2023-02-23T11:36:17.660Z,34.79
2023-02-23T11:37:49.229Z,34.44
2023-02-23T11:40:06.140Z,31.24
2023-02-23T11:41:47.806Z,32.78
2023-02-23T11:43:19.349Z,36.34
2023-02-23T11:44:59.961Z,35.48
2023-02-23T11:47:03.220Z,35.24
2023-02-23T11:48:34.606Z,36.06
2023-02-23T11:50:51.223Z,35.02
2023-02-23T11:52:24.202Z,31.43
2023-02-23T11:54:06.008Z,29.75
2023-02-23T11:55:52.285Z,31.06
2023-02-23T11:57:24.049Z,31.65
2023-02-23T11:58:55.671Z,31.91
2023-02-23T12:00:27.651Z,31.65
2023-02-23T12:01:59.394Z,31.42
2023-02-23T12:03:55.542Z,31.02
2023-02-23T12:05:36.558Z,30.86
2023-02-23T12:07:39.988Z,31.47
2023-02-23T12:09:13.278Z,31.09
2023-02-23T12:10:45.326Z,29.60
2023-02-23T12:12:17.053Z,31.14
2023-02-23T12:14:32.915Z,29.51
2023-02-23T12:16:04.507Z,30.35
2023-02-23T12:17:35.830Z,30.14
2023-02-23T12:19:07.235Z,31.76
2023-02-23T12:20:38.511Z,31.23
2023-02-23T12:22:09.782Z,31.89
2023-02-23T12:23:41.470Z,32.86
2023-02-23T12:25:12.812Z,32.36
2023-02-23T12:26:44.241Z,31.73
2023-02-23T12:28:19.108Z,31.98
2023-02-23T12:29:50.880Z,32.69
2023-02-23T12:31:22.332Z,32.36
2023-02-23T12:32:53.708Z,32.58
2023-02-23T12:34:25.000Z,32.30
2023-02-23T12:35:56.362Z,32.43
2023-02-23T12:37:27.735Z,31.91
2023-02-23T12:38:59.131Z,32.01
2023-02-23T12:40:30.515Z,30.20
2023-02-23T12:42:02.026Z,29.01
2023-02-23T12:43:33.452Z,31.61
2023-02-23T12:45:04.949Z,29.68
2023-02-23T12:46:36.285Z,30.36
2023-02-23T12:48:07.619Z,27.76
2023-02-23T12:49:41.003Z,33.29
2023-02-23T12:51:12.509Z,33.33
2023-02-23T12:52:43.980Z,36.48
2023-02-23T12:54:15.282Z,38.22
2023-02-23T12:55:46.704Z,37.35
2023-02-23T12:57:18.120Z,37.82
2023-02-23T12:58:49.497Z,37.02
2023-02-23T13:00:20.791Z,33.71
2023-02-23T13:01:52.306Z,33.71
2023-02-23T13:03:23.711Z,33.68
2023-02-23T13:04:54.992Z,33.34
2023-02-23T13:06:26.297Z,33.91
2023-02-23T13:08:07.976Z,34.09
2023-02-23T13:09:43.907Z,32.95
2023-02-23T13:11:15.223Z,31.57
2023-02-23T13:12:46.571Z,30.89
2023-02-23T13:14:18.137Z,30.61
2023-02-23T13:15:49.536Z,30.40
2023-02-23T13:17:20.929Z,30.09
2023-02-23T13:18:52.241Z,30.05
2023-02-23T13:20:23.524Z,29.20
2023-02-23T13:21:54.937Z,28.38
2023-02-23T13:23:26.357Z,30.16
2023-02-23T13:24:57.670Z,30.71
2023-02-23T13:26:28.964Z,31.38
2023-02-23T13:28:00.272Z,32.58
2023-02-23T13:29:31.919Z,28.37
2023-02-23T13:31:05.710Z,27.61
2023-02-23T13:32:37.537Z,31.72
2023-02-23T13:34:08.781Z,28.79
2023-02-23T13:35:40.216Z,28.63
2023-02-23T13:37:11.618Z,27.17
2023-02-23T13:38:42.944Z,24.60
2023-02-23T13:40:14.421Z,24.58
2023-02-23T13:41:45.840Z,24.66
2023-02-23T13:43:17.154Z,24.40
2023-02-23T13:44:48.646Z,23.04
2023-02-23T13:46:20.010Z,23.43
2023-02-23T13:47:51.298Z,22.84
2023-02-23T13:49:22.627Z,22.33
2023-02-23T13:50:54.252Z,23.43
2023-02-23T13:52:25.757Z,21.37
2023-02-23T13:53:57.401Z,19.56
2023-02-23T13:55:40.076Z,21.12
2023-02-23T13:57:18.647Z,22.06
2023-02-23T13:58:49.930Z,21.25
2023-02-23T14:00:21.448Z,19.86
2023-02-23T14:01:52.858Z,21.34
2023-02-23T14:03:24.297Z,21.36
2023-02-23T14:04:55.690Z,21.79
2023-02-23T14:06:27.178Z,21.64
2023-02-23T14:07:58.649Z,21.85
2023-02-23T14:09:29.998Z,20.37
2023-02-23T14:11:01.489Z,22.20
2023-02-23T14:12:33.004Z,22.16
2023-02-23T14:14:04.352Z,19.97
2023-02-23T14:15:35.751Z,22.55
2023-02-23T14:17:07.202Z,23.40
2023-02-23T14:18:38.678Z,23.00
2023-02-23T14:20:13.366Z,22.10
2023-02-23T14:21:49.071Z,21.56
2023-02-23T14:23:20.470Z,21.30
2023-02-23T14:24:51.840Z,22.25
2023-02-23T14:26:23.299Z,22.51
2023-02-23T14:27:54.793Z,22.20
2023-02-23T14:29:26.301Z,21.45
2023-02-23T14:30:57.986Z,21.31
2023-02-23T14:32:29.451Z,21.92
2023-02-23T14:34:05.771Z,22.05
2023-02-23T14:35:37.161Z,22.12
2023-02-23T14:37:14.441Z,21.95
2023-02-23T14:38:50.665Z,23.77
2023-02-23T14:40:22.088Z,22.79
2023-02-23T14:41:53.374Z,22.46
2023-02-23T14:43:24.734Z,22.94
2023-02-23T14:44:56.142Z,22.54
2023-02-23T14:46:27.769Z,23.47
2023-02-23T14:47:59.117Z,23.03
2023-02-23T14:49:31.019Z,23.29
2023-02-23T14:51:14.969Z,23.12
2023-02-23T14:52:47.310Z,22.75
2023-02-23T14:54:18.681Z,24.27
2023-02-23T14:55:50.174Z,22.96
2023-02-23T14:57:21.660Z,23.71
2023-02-23T14:58:52.969Z,23.95
2023-02-23T15:00:24.227Z,24.46
2023-02-23T15:01:55.723Z,23.78
2023-02-23T15:03:32.156Z,24.35
2023-02-23T15:05:03.400Z,24.78
2023-02-23T15:06:34.707Z,24.65
2023-02-23T15:08:05.964Z,24.62
2023-02-23T15:09:42.408Z,25.20
2023-02-23T15:11:14.150Z,24.64
2023-02-23T15:12:45.736Z,23.99
2023-02-23T15:14:26.961Z,25.36
2023-02-23T15:16:04.444Z,25.74
2023-02-23T15:17:51.027Z,24.91
2023-02-23T15:19:23.399Z,26.22
2023-02-23T15:20:54.689Z,25.20
2023-02-23T15:22:26.229Z,25.23
2023-02-23T15:23:57.679Z,25.29
2023-02-23T15:25:29.003Z,23.58
2023-02-23T15:27:00.726Z,24.58
2023-02-23T15:28:31.993Z,24.30
2023-02-23T15:30:03.292Z,24.50
2023-02-23T15:32:04.878Z,24.13
2023-02-23T15:33:36.190Z,24.80
2023-02-23T15:35:07.578Z,24.39
2023-02-23T15:36:38.901Z,24.71
2023-02-23T15:38:17.853Z,26.15
2023-02-23T15:39:49.828Z,26.03
2023-02-23T15:41:21.542Z,25.76
2023-02-23T15:42:53.252Z,26.34
2023-02-23T15:44:27.541Z,26.75
2023-02-23T15:46:01.076Z,25.64
2023-02-23T15:47:32.770Z,26.23
2023-02-23T15:49:04.021Z,25.06
2023-02-23T15:50:37.217Z,25.78
2023-02-23T15:52:08.805Z,26.62
2023-02-23T15:53:40.123Z,27.19
2023-02-23T15:55:11.686Z,26.90
2023-02-23T15:56:43.038Z,26.78
2023-02-23T15:58:14.641Z,26.98
2023-02-23T15:59:50.899Z,28.05
2023-02-23T16:01:22.404Z,27.01
2023-02-23T16:02:53.861Z,27.23
2023-02-23T16:04:25.207Z,26.10
2023-02-23T16:05:56.541Z,26.66
2023-02-23T16:07:27.833Z,26.51
2023-02-23T16:08:59.223Z,26.67
2023-02-23T16:10:30.526Z,26.45
2023-02-23T16:12:02.092Z,27.14
2023-02-23T16:13:33.591Z,26.78
2023-02-23T16:15:04.941Z,26.94
2023-02-23T16:16:36.255Z,27.73
2023-02-23T16:18:07.525Z,27.71
2023-02-23T16:19:38.853Z,27.68
2023-02-23T16:21:10.101Z,28.62
2023-02-23T16:22:41.409Z,28.28
2023-02-23T16:24:12.687Z,29.02
2023-02-23T16:25:43.998Z,28.32
2023-02-23T16:27:15.294Z,28.25
2023-02-23T16:28:46.558Z,29.34
2023-02-23T16:30:17.853Z,28.12
2023-02-23T16:31:49.512Z,29.26
2023-02-23T16:33:21.004Z,27.78
2023-02-23T16:34:52.400Z,26.57
2023-02-23T16:36:24.152Z,25.83
2023-02-23T16:37:55.562Z,25.71
2023-02-23T16:39:27.678Z,26.10
2023-02-23T16:40:59.042Z,25.85
2023-02-23T16:42:31.531Z,24.95
2023-02-23T16:44:02.898Z,25.39
2023-02-23T16:45:34.213Z,25.10
2023-02-23T16:47:05.637Z,25.21
2023-02-23T16:48:36.933Z,25.11
2023-02-23T16:50:18.971Z,23.98
2023-02-23T16:51:50.764Z,25.01
2023-02-23T16:53:22.066Z,24.87
2023-02-23T16:54:55.859Z,25.62
2023-02-23T16:56:27.583Z,25.02
2023-02-23T16:57:59.069Z,25.09
2023-02-23T16:59:30.403Z,24.96
2023-02-23T17:01:01.796Z,24.21
2023-02-23T17:02:33.298Z,24.27
2023-02-23T17:04:04.611Z,24.64
2023-02-23T17:05:35.922Z,24.09
2023-02-23T17:07:07.320Z,23.95
2023-02-23T17:08:52.410Z,22.64
2023-02-23T17:10:29.017Z,23.07
2023-02-23T17:12:00.368Z,21.46
2023-02-23T17:13:31.654Z,21.43
2023-02-23T17:15:03.136Z,22.36
2023-02-23T17:16:34.444Z,21.54
2023-02-23T17:18:05.952Z,21.68
2023-02-23T17:19:37.368Z,22.03
2023-02-23T17:21:08.595Z,21.52
2023-02-23T17:22:39.818Z,21.13
2023-02-23T17:24:11.797Z,21.14
2023-02-23T17:25:54.142Z,20.47
2023-02-23T17:27:25.443Z,21.67
2023-02-23T17:29:01.817Z,21.45
2023-02-23T17:30:38.154Z,21.95
2023-02-23T17:32:09.745Z,21.97
2023-02-23T17:33:41.093Z,21.02
2023-02-23T17:35:12.738Z,20.67
2023-02-23T17:36:44.266Z,21.83
2023-02-23T17:38:15.604Z,21.15
2023-02-23T17:39:46.966Z,21.36
2023-02-23T17:41:23.784Z,22.29
2023-02-23T17:42:55.113Z,22.64
2023-02-23T17:44:26.504Z,22.29
2023-02-23T17:45:57.807Z,22.70
2023-02-23T17:47:34.351Z,23.29
2023-02-23T17:49:05.797Z,23.40
2023-02-23T17:50:37.026Z,21.92
2023-02-23T17:52:08.356Z,23.50
2023-02-23T17:53:39.650Z,22.16
2023-02-23T17:55:11.092Z,23.19
2023-02-23T17:56:45.693Z,22.97
2023-02-23T17:58:16.968Z,24.20
2023-02-23T17:59:48.535Z,23.70
2023-02-23T18:01:20.476Z,24.33
2023-02-23T18:02:52.226Z,23.56
2023-02-23T18:04:23.750Z,24.37
2023-02-23T18:05:55.376Z,23.43
2023-02-23T18:07:26.709Z,23.87
2023-02-23T18:08:57.942Z,23.58
2023-02-23T18:10:29.303Z,24.37
2023-02-23T18:12:01.294Z,24.81
2023-02-23T18:13:32.648Z,24.17
2023-02-23T18:15:03.884Z,24.16
2023-02-23T18:16:35.333Z,23.27
2023-02-23T18:18:06.750Z,23.80
2023-02-23T18:19:38.008Z,23.47
2023-02-23T18:21:09.228Z,24.59
2023-02-23T18:22:40.633Z,24.73
2023-02-23T18:24:12.095Z,26.38
2023-02-23T18:25:43.448Z,25.92
2023-02-23T18:27:14.818Z,26.32
2023-02-23T18:28:51.452Z,25.69
2023-02-23T18:30:23.170Z,27.15
2023-02-23T18:31:55.480Z,26.42
2023-02-23T18:33:36.095Z,25.78
2023-02-23T18:35:07.657Z,25.32
2023-02-23T18:36:40.661Z,26.09
2023-02-23T18:38:11.989Z,26.06
2023-02-23T18:39:43.496Z,26.38
2023-02-23T18:41:14.938Z,25.68
2023-02-23T18:42:46.214Z,25.76
2023-02-23T18:44:17.474Z,25.93
2023-02-23T18:45:48.698Z,25.84
2023-02-23T18:47:20.093Z,26.73
2023-02-23T18:48:51.535Z,26.14
2023-02-23T18:50:22.910Z,26.74
2023-02-23T18:51:54.488Z,25.40
2023-02-23T18:53:25.730Z,25.80
2023-02-23T18:54:57.819Z,25.22
2023-02-23T18:56:34.272Z,26.06
2023-02-23T18:58:10.612Z,25.86
2023-02-23T18:59:41.901Z,26.34
2023-02-23T19:01:13.259Z,25.73
2023-02-23T19:03:17.274Z,26.39
2023-02-23T19:04:48.869Z,26.65
2023-02-23T19:06:21.570Z,25.59
2023-02-23T19:07:53.166Z,25.57
2023-02-23T19:09:24.401Z,26.66
2023-02-23T19:10:55.982Z,26.27
2023-02-23T19:12:27.471Z,26.95
2023-02-23T19:13:58.968Z,25.08
2023-02-23T19:15:30.596Z,25.56
2023-02-23T19:17:02.051Z,25.51
2023-02-23T19:18:33.420Z,25.92
2023-02-23T19:20:04.778Z,25.62
2023-02-23T19:21:36.188Z,25.84
2023-02-23T19:23:07.432Z,25.56
2023-02-23T19:24:39.011Z,25.46
2023-02-23T19:26:10.284Z,25.68
2023-02-23T19:27:41.698Z,25.63
2023-02-23T19:29:13.144Z,24.91
2023-02-23T19:30:44.415Z,25.47
2023-02-23T19:32:15.927Z,24.94
2023-02-23T19:33:47.358Z,24.48
2023-02-23T19:35:18.749Z,25.37
2023-02-23T19:36:50.464Z,24.22
2023-02-23T19:38:21.861Z,24.91
2023-02-23T19:39:53.754Z,24.46
2023-02-23T19:41:25.033Z,30.43
2023-02-23T19:42:56.315Z,29.96
2023-02-23T19:44:32.691Z,27.65
2023-02-23T19:46:04.112Z,26.00
2023-02-23T19:47:35.560Z,28.38
2023-02-23T19:49:06.828Z,30.51
2023-02-23T19:50:43.225Z,30.04
2023-02-23T19:52:14.906Z,31.67
2023-02-23T19:53:48.098Z,29.78
2023-02-23T19:55:20.068Z,25.71
2023-02-23T19:56:51.674Z,25.91
2023-02-23T19:58:24.141Z,26.20
2023-02-23T19:59:56.030Z,25.23
2023-02-23T20:01:27.902Z,25.75
2023-02-23T20:02:59.390Z,24.90
2023-02-23T20:04:30.635Z,25.02
2023-02-23T20:06:02.045Z,25.06
2023-02-23T20:07:33.890Z,24.93
2023-02-23T20:09:05.580Z,22.91
2023-02-23T20:10:36.837Z,23.27
2023-02-23T20:12:08.112Z,23.87
2023-02-23T20:13:39.563Z,24.05
2023-02-23T20:15:10.916Z,24.78